Time;durP1;ratioP1;P1;durP2;ratioP2;P2;SDS_P1;SDS_P2;PMS_P1;PMS_P2;Temp;Humidity;BMP_temperature;BMP_pressure;BME280_temperature;BME280_humidity;BME280_pressure;Samples;Min_cycle;Max_cycle;Signal;HPM_P1;HPM_P2
2021/12/10 00:00:42;;;;;;;34.33;11.70;;;4.10;99.90;;;;;;5044523;28;20100;-74
2021/12/10 00:03:17;;;;;;;36.00;11.45;;;4.10;99.90;;;;;;5027574;28;20041;-74
2021/12/10 00:05:46;;;;;;;;;;;4.10;99.90;;;;;;5027487;28;20033;-74
2021/12/10 00:08:12;;;;;;;32.03;11.48;;;4.10;99.90;;;;;;5028089;28;19905;-75
2021/12/10 00:10:43;;;;;;;32.70;11.88;;;4.10;99.90;;;;;;5051692;27;20405;-75
2021/12/10 00:13:09;;;;;;;35.35;12.63;;;4.10;99.90;;;;;;5063829;27;20023;-75
2021/12/10 00:15:37;;;;;;;25.45;11.95;;;4.10;99.90;;;;;;5089426;27;20130;-74
2021/12/10 00:18:05;;;;;;;27.08;12.25;;;4.10;99.90;;;;;;5050528;28;20029;-75
2021/12/10 00:20:33;;;;;;;26.80;12.02;;;4.10;99.90;;;;;;5120400;27;20027;-75
2021/12/10 00:23:09;;;;;;;34.05;12.25;;;4.10;99.90;;;;;;5134817;27;20027;-74
2021/12/10 00:25:40;;;;;;;27.55;11.43;;;4.10;99.90;;;;;;5133579;27;20047;-74
2021/12/10 00:28:16;;;;;;;29.73;12.85;;;4.10;99.90;;;;;;5133956;27;20100;-75
2021/12/10 00:31:01;;;;;;;28.70;12.68;;;4.10;99.90;;;;;;5071200;27;20402;-73
2021/12/10 00:33:31;;;;;;;31.65;13.45;;;4.10;99.90;;;;;;5050917;27;20017;-75
2021/12/10 00:35:56;;;;;;;35.08;13.30;;;4.00;99.90;;;;;;5050207;28;20056;-74
2021/12/10 00:38:23;;;;;;;29.08;13.93;;;4.00;99.90;;;;;;5049045;28;20025;-75
2021/12/10 00:40:50;;;;;;;29.42;14.63;;;4.00;99.90;;;;;;5133029;27;20096;-74
2021/12/10 00:43:16;;;;;;;30.77;14.75;;;4.10;99.90;;;;;;5134242;27;20027;-75
2021/12/10 00:45:42;;;;;;;34.03;15.95;;;4.10;99.90;;;;;;5117698;27;20023;-75
2021/12/10 00:48:08;;;;;;;32.38;14.93;;;4.10;99.90;;;;;;5086935;27;20066;-75
2021/12/10 00:50:38;;;;;;;39.47;16.02;;;4.10;99.90;;;;;;5052950;27;20236;-74
2021/12/10 00:53:04;;;;;;;35.80;15.30;;;4.10;99.90;;;;;;5103913;27;20017;-75
2021/12/10 00:55:30;;;;;;;39.45;16.35;;;4.10;99.90;;;;;;5049313;28;20315;-74
2021/12/10 00:57:58;;;;;;;37.50;15.95;;;4.10;99.90;;;;;;5049427;28;20022;-74
2021/12/10 01:00:31;;;;;;;37.13;17.08;;;4.10;99.90;;;;;;5093706;27;20019;-74
2021/12/10 01:02:57;;;;;;;38.15;16.20;;;4.00;99.90;;;;;;5049790;28;20040;-75
2021/12/10 01:05:25;;;;;;;34.63;16.10;;;4.00;99.90;;;;;;5049307;28;20029;-75
2021/12/10 01:07:51;;;;;;;38.95;16.33;;;4.00;99.90;;;;;;5049329;28;20512;-74
2021/12/10 01:10:30;;;;;;;32.78;15.95;;;4.00;99.90;;;;;;5122272;27;20027;-75
2021/12/10 01:12:58;;;;;;;36.33;14.52;;;4.00;99.90;;;;;;5133909;27;20106;-75
2021/12/10 01:23:55;;;;;;;33.25;13.07;;;4.00;99.90;;;;;;5049198;28;20397;-75
2021/12/10 01:29:20;;;;;;;34.90;13.70;;;3.90;99.90;;;;;;5048836;28;20049;-75
2021/12/10 01:31:46;;;;;;;29.92;13.10;;;3.90;99.90;;;;;;5048989;28;20033;-75
2021/12/10 01:34:13;;;;;;;27.58;12.43;;;3.90;99.90;;;;;;5048662;28;20519;-75
2021/12/10 01:36:40;;;;;;;33.40;12.30;;;3.90;99.90;;;;;;5048880;28;20032;-75
2021/12/10 01:39:13;;;;;;;31.25;12.60;;;3.90;99.90;;;;;;5051890;28;20029;-74
2021/12/10 01:41:41;;;;;;;26.38;13.23;;;3.90;99.90;;;;;;5048847;28;20100;-75
2021/12/10 01:44:15;;;;;;;28.52;12.18;;;3.90;99.90;;;;;;5068198;27;20465;-75
2021/12/10 01:46:43;;;;;;;24.20;12.10;;;3.90;99.90;;;;;;5129393;27;20096;-75
2021/12/10 01:49:12;;;;;;;27.58;12.98;;;3.90;99.90;;;;;;5093333;27;20034;-75
2021/12/10 01:51:39;;;;;;;24.77;12.30;;;3.90;99.90;;;;;;5047296;28;20021;-75
2021/12/10 01:54:10;;;;;;;27.00;12.77;;;3.90;99.90;;;;;;5052174;27;20042;-75
2021/12/10 01:56:38;;;;;;;26.65;12.52;;;3.90;99.90;;;;;;5048623;28;20478;-74
2021/12/10 01:59:06;;;;;;;27.50;12.05;;;3.90;99.90;;;;;;5056835;27;20029;-75
2021/12/10 02:01:40;;;;;;;26.13;11.80;;;3.90;99.90;;;;;;5093575;27;20023;-74
2021/12/10 02:04:07;;;;;;;26.50;12.15;;;3.90;99.90;;;;;;5053989;27;20021;-74
2021/12/10 02:06:33;;;;;;;28.98;12.18;;;3.90;99.90;;;;;;5048519;28;20025;-74
2021/12/10 02:08:59;;;;;;;26.20;11.18;;;3.90;99.90;;;;;;5047922;28;20347;-74
2021/12/10 02:11:25;;;;;;;24.70;10.82;;;3.90;99.90;;;;;;5048218;28;20029;-74
2021/12/10 02:13:51;;;;;;;21.95;11.02;;;3.90;99.90;;;;;;5048105;28;20029;-74
2021/12/10 02:16:17;;;;;;;24.50;10.90;;;3.90;99.90;;;;;;5048334;27;20036;-74
2021/12/10 02:18:43;;;;;;;23.70;10.35;;;3.90;99.90;;;;;;5053459;27;20028;-74
2021/12/10 02:21:09;;;;;;;21.05;10.48;;;3.90;99.90;;;;;;5081659;27;20027;-74
2021/12/10 02:23:39;;;;;;;25.95;10.57;;;3.90;99.90;;;;;;5084958;27;20025;-74
2021/12/10 02:26:09;;;;;;;18.15;9.38;;;3.90;99.90;;;;;;5048102;28;20398;-74
2021/12/10 02:28:36;;;;;;;22.95;9.27;;;3.90;99.90;;;;;;5069144;27;20015;-74
2021/12/10 02:31:03;;;;;;;19.63;8.88;;;3.90;99.90;;;;;;5112781;27;20043;-74
2021/12/10 02:33:30;;;;;;;21.08;8.55;;;3.90;99.90;;;;;;5129342;27;20503;-74
2021/12/10 02:35:56;;;;;;;17.92;8.60;;;3.90;99.90;;;;;;5097804;27;20032;-74
2021/12/10 02:38:22;;;;;;;17.25;7.85;;;4.00;99.90;;;;;;5047520;28;20100;-75
2021/12/10 02:40:52;;;;;;;22.00;7.53;;;4.00;99.90;;;;;;5048082;28;20040;-74
2021/12/10 02:43:20;;;;;;;21.60;7.53;;;4.00;99.90;;;;;;5075489;27;20491;-74
2021/12/10 02:45:53;;;;;;;16.70;6.90;;;4.10;99.90;;;;;;5100827;27;20025;-74
2021/12/10 02:48:19;;;;;;;19.15;7.20;;;4.10;99.90;;;;;;5062972;27;20090;-74
2021/12/10 02:50:45;;;;;;;23.38;7.05;;;4.10;99.90;;;;;;5047657;28;20037;-74
2021/12/10 02:53:14;;;;;;;20.15;6.60;;;4.20;99.90;;;;;;5038309;28;20055;-74
2021/12/10 02:55:40;;;;;;;15.23;6.47;;;4.20;99.90;;;;;;5044856;27;20033;-75
2021/12/10 02:58:10;;;;;;;18.13;7.13;;;4.20;99.90;;;;;;5088824;27;20558;-74
2021/12/10 03:00:45;;;;;;;19.65;6.43;;;4.20;99.90;;;;;;5103928;27;20378;-74
2021/12/10 03:03:11;;;;;;;13.40;6.22;;;4.20;99.90;;;;;;5052414;27;20040;-74
2021/12/10 03:05:36;;;;;;;19.10;6.10;;;4.30;99.90;;;;;;5064755;27;20025;-75
2021/12/10 03:08:03;;;;;;;15.88;6.32;;;4.30;99.90;;;;;;5047110;28;20025;-74
2021/12/10 03:10:30;;;;;;;16.60;5.82;;;4.30;99.90;;;;;;5047390;28;20045;-74
2021/12/10 03:12:56;;;;;;;16.88;5.82;;;4.30;99.90;;;;;;5047405;28;20025;-74
2021/12/10 03:15:25;;;;;;;13.02;5.70;;;4.30;99.90;;;;;;5047397;28;20029;-74
2021/12/10 03:17:51;;;;;;;18.35;5.78;;;4.30;99.90;;;;;;5057826;27;20154;-74
2021/12/10 03:20:19;;;;;;;13.00;5.40;;;4.40;99.90;;;;;;5074492;27;20029;-74
2021/12/10 03:22:46;;;;;;;17.50;5.63;;;4.40;99.90;;;;;;5052262;28;20036;-74
2021/12/10 03:25:14;;;;;;;19.02;5.70;;;4.30;99.90;;;;;;5047057;28;20036;-74
2021/12/10 03:27:40;;;;;;;19.90;5.85;;;4.40;99.90;;;;;;5047199;28;20601;-74
2021/12/10 03:30:10;;;;;;;15.13;5.30;;;4.40;99.90;;;;;;5058059;27;20032;-74
2021/12/10 03:32:38;;;;;;;19.13;5.80;;;4.40;99.90;;;;;;5052912;27;20033;-74
2021/12/10 03:35:09;;;;;;;17.92;5.88;;;4.40;99.90;;;;;;5046749;28;20493;-74
2021/12/10 03:37:38;;;;;;;11.05;5.70;;;4.40;99.90;;;;;;5062301;28;20405;-74
2021/12/10 03:40:08;;;;;;;16.00;5.55;;;4.40;99.90;;;;;;5046392;27;20512;-74
2021/12/10 03:42:34;;;;;;;15.25;5.40;;;4.40;99.90;;;;;;5048556;28;20478;-74
2021/12/10 03:45:00;;;;;;;16.52;5.55;;;4.40;99.90;;;;;;5050080;28;20065;-74
2021/12/10 03:47:26;;;;;;;15.13;5.68;;;4.40;99.90;;;;;;5050536;27;20079;-73
2021/12/10 03:49:51;;;;;;;14.48;5.57;;;4.40;99.90;;;;;;5050072;27;20036;-74
2021/12/10 03:52:17;;;;;;;16.30;5.72;;;4.40;99.90;;;;;;5051034;27;20081;-74
2021/12/10 03:54:44;;;;;;;13.38;5.88;;;4.40;99.90;;;;;;5050142;28;20063;-74
2021/12/10 03:57:11;;;;;;;17.60;5.75;;;4.40;99.90;;;;;;5050434;28;20037;-74
2021/12/10 03:59:37;;;;;;;13.40;5.28;;;4.40;99.90;;;;;;5065495;28;20096;-74
2021/12/10 04:02:07;;;;;;;14.18;5.30;;;4.40;99.90;;;;;;5050202;28;20049;-74
2021/12/10 04:04:37;;;;;;;12.20;5.15;;;4.40;99.90;;;;;;5050548;28;20076;-74
2021/12/10 04:07:10;;;;;;;14.88;5.25;;;4.40;99.90;;;;;;5049585;28;20033;-74
2021/12/10 04:09:36;;;;;;;17.42;5.60;;;4.40;99.90;;;;;;5050004;28;20061;-74
2021/12/10 04:12:03;;;;;;;18.52;5.70;;;4.40;99.90;;;;;;5050388;28;20074;-74
2021/12/10 04:14:29;;;;;;;12.90;4.90;;;4.40;99.90;;;;;;5076854;27;20435;-74
2021/12/10 04:16:55;;;;;;;14.25;4.90;;;4.40;99.90;;;;;;5130901;27;20019;-74
2021/12/10 04:19:23;;;;;;;12.27;4.95;;;4.40;99.90;;;;;;5110140;27;20029;-74
2021/12/10 04:21:48;;;;;;;16.08;5.13;;;4.40;99.90;;;;;;5049645;28;20028;-74
2021/12/10 04:24:17;;;;;;;16.75;4.53;;;4.40;99.90;;;;;;5055234;27;20033;-74
2021/12/10 04:26:44;;;;;;;13.57;4.60;;;4.40;99.90;;;;;;5049707;28;20511;-74
2021/12/10 04:29:10;;;;;;;12.00;4.88;;;4.50;99.90;;;;;;5049401;28;20048;-74
2021/12/10 04:31:36;;;;;;;16.52;4.80;;;4.40;99.90;;;;;;5094443;27;20019;-74
2021/12/10 04:34:02;;;;;;;11.38;4.50;;;4.50;99.90;;;;;;5121429;27;20029;-74
2021/12/10 04:36:27;;;;;;;13.80;4.82;;;4.50;99.90;;;;;;5051319;27;20021;-74
2021/12/10 04:38:53;;;;;;;15.48;4.35;;;4.50;99.90;;;;;;5054812;27;20029;-74
2021/12/10 04:41:19;;;;;;;14.48;4.18;;;4.50;99.90;;;;;;5049595;28;20029;-74
2021/12/10 04:43:47;;;;;;;16.42;4.43;;;4.40;99.90;;;;;;5069613;27;20401;-74
2021/12/10 04:46:13;;;;;;;15.15;4.15;;;4.40;99.90;;;;;;5086187;27;20021;-75
2021/12/10 04:48:51;;;;;;;13.05;3.60;;;4.50;99.90;;;;;;5049197;28;20063;-75
2021/12/10 04:51:18;;;;;;;13.57;4.20;;;4.50;99.90;;;;;;5050035;28;20139;-75
2021/12/10 04:53:44;;;;;;;15.77;4.60;;;4.50;99.90;;;;;;5048759;28;20029;-75
2021/12/10 04:56:10;;;;;;;11.65;3.95;;;4.50;99.90;;;;;;5079298;27;20533;-75
2021/12/10 04:58:36;;;;;;;13.52;4.20;;;4.50;99.90;;;;;;5118088;27;20021;-74
2021/12/10 05:01:03;;;;;;;13.68;4.03;;;4.50;99.90;;;;;;5049397;28;20532;-75
2021/12/10 05:03:29;;;;;;;11.38;3.92;;;4.50;99.90;;;;;;5049464;28;20100;-74
2021/12/10 05:06:00;;;;;;;12.70;4.18;;;4.50;99.90;;;;;;5049358;28;20073;-74
2021/12/10 05:08:26;;;;;;;19.02;3.70;;;4.50;99.90;;;;;;5049127;28;20028;-73
2021/12/10 05:10:52;;;;;;;7.57;3.53;;;4.50;99.90;;;;;;5049119;28;20041;-74
2021/12/10 05:13:17;;;;;;;10.98;3.42;;;4.50;99.90;;;;;;5049389;28;20525;-75
2021/12/10 05:15:44;;;;;;;8.07;3.28;;;4.50;99.90;;;;;;5049020;28;20160;-74
2021/12/10 05:18:13;;;;;;;9.88;3.53;;;4.50;99.90;;;;;;5131318;27;20030;-74
2021/12/10 05:20:41;;;;;;;11.00;3.53;;;4.50;99.90;;;;;;5120540;27;20500;-75
2021/12/10 05:23:07;;;;;;;14.18;3.90;;;4.50;99.90;;;;;;5091627;27;20024;-75
2021/12/10 05:25:33;;;;;;;12.27;3.88;;;4.50;99.90;;;;;;5048362;27;20316;-75
2021/12/10 05:27:59;;;;;;;8.52;3.50;;;4.50;99.90;;;;;;5048312;28;20069;-75
2021/12/10 05:30:28;;;;;;;7.10;3.13;;;4.60;99.90;;;;;;5048187;28;20113;-74
2021/12/10 05:32:55;;;;;;;15.10;3.92;;;4.60;99.90;;;;;;5047879;28;20032;-75
2021/12/10 05:35:21;;;;;;;13.07;3.92;;;4.60;99.90;;;;;;5043107;28;20470;-74
2021/12/10 05:37:47;;;;;;;10.15;3.63;;;4.50;99.90;;;;;;5031700;27;20029;-74
2021/12/10 05:40:15;;;;;;;9.00;3.60;;;4.60;99.90;;;;;;5041009;28;20040;-74
2021/12/10 05:42:42;;;;;;;9.80;3.30;;;4.50;99.90;;;;;;5038663;28;20024;-74
2021/12/10 05:45:09;;;;;;;12.02;3.53;;;4.60;99.90;;;;;;5045723;27;20025;-74
2021/12/10 05:47:35;;;;;;;9.40;3.10;;;4.60;99.90;;;;;;5039477;28;20044;-74
2021/12/10 05:50:02;;;;;;;8.52;3.17;;;4.60;99.90;;;;;;5046204;28;20029;-74
2021/12/10 05:52:28;;;;;;;13.98;3.90;;;4.50;99.90;;;;;;5042124;28;20050;-74
2021/12/10 05:54:53;;;;;;;10.32;3.40;;;4.60;99.90;;;;;;5033050;28;20025;-74
2021/12/10 05:57:19;;;;;;;10.55;3.45;;;4.60;99.90;;;;;;5034358;28;20037;-74
2021/12/10 05:59:45;;;;;;;14.07;3.33;;;4.50;99.90;;;;;;5033982;28;20041;-74
2021/12/10 06:02:12;;;;;;;12.90;3.72;;;4.60;99.90;;;;;;5027955;28;20061;-73
2021/12/10 06:04:38;;;;;;;11.55;3.28;;;4.60;99.90;;;;;;5027180;28;20022;-74
2021/12/10 06:07:06;;;;;;;9.93;3.00;;;4.50;99.90;;;;;;5027954;28;20022;-74
2021/12/10 06:09:32;;;;;;;10.27;3.08;;;4.50;99.90;;;;;;5028496;28;20033;-74
2021/12/10 06:11:59;;;;;;;6.53;3.42;;;4.60;99.90;;;;;;5035553;28;20112;-75
2021/12/10 06:14:25;;;;;;;11.93;3.28;;;4.60;99.90;;;;;;5029154;28;20073;-75
2021/12/10 06:16:54;;;;;;;8.85;3.20;;;4.60;99.90;;;;;;5034568;28;20029;-75
2021/12/10 06:19:22;;;;;;;11.23;3.40;;;4.60;99.90;;;;;;5028398;28;20072;-75
2021/12/10 06:21:48;;;;;;;8.60;3.20;;;4.60;99.90;;;;;;5029303;28;20037;-74
2021/12/10 06:24:13;;;;;;;10.60;3.40;;;4.60;99.90;;;;;;5029606;28;20078;-74
2021/12/10 06:26:39;;;;;;;16.27;3.53;;;4.60;99.90;;;;;;5039029;28;20148;-74
2021/12/10 06:29:06;;;;;;;10.70;3.47;;;4.60;99.90;;;;;;5038989;27;20025;-74
2021/12/10 06:31:35;;;;;;;15.35;3.75;;;4.50;99.90;;;;;;5036838;28;20021;-77
2021/12/10 06:34:01;;;;;;;10.52;3.40;;;4.60;99.90;;;;;;5059699;28;20500;-75
2021/12/10 06:36:29;;;;;;;9.80;3.55;;;4.60;99.90;;;;;;5036646;28;20022;-74
2021/12/10 06:38:55;;;;;;;11.75;3.20;;;4.50;99.90;;;;;;5037851;28;20470;-75
2021/12/10 06:41:21;;;;;;;14.02;3.70;;;4.60;99.90;;;;;;5049059;27;20025;-74
2021/12/10 06:43:47;;;;;;;14.30;3.30;;;4.50;99.90;;;;;;5048651;27;20021;-75
2021/12/10 06:46:14;;;;;;;8.77;3.30;;;4.50;99.90;;;;;;5048821;28;20040;-76
2021/12/10 06:48:40;;;;;;;13.02;3.28;;;4.50;99.90;;;;;;5049020;28;20040;-76
2021/12/10 06:51:19;;;;;;;10.80;3.08;;;4.50;99.90;;;;;;5046697;27;20390;-76
2021/12/10 06:53:45;;;;;;;10.55;2.88;;;4.50;99.90;;;;;;5047155;28;20397;-76
2021/12/10 06:56:13;;;;;;;13.63;2.95;;;4.50;99.90;;;;;;5047195;28;20028;-75
2021/12/10 06:58:40;;;;;;;12.75;3.25;;;4.50;99.90;;;;;;5047376;28;20028;-75
2021/12/10 07:01:40;;;;;;;12.48;3.28;;;4.50;99.90;;;;;;5047655;27;20033;-75
2021/12/10 07:04:11;;;;;;;15.38;3.22;;;4.50;99.90;;;;;;5058129;28;20041;-75
2021/12/10 07:06:40;;;;;;;8.52;3.25;;;4.50;99.90;;;;;;5027669;28;20029;-75
2021/12/10 07:09:12;;;;;;;14.70;3.40;;;4.50;99.90;;;;;;5027031;28;20445;-75
2021/12/10 07:11:38;;;;;;;15.38;3.75;;;4.50;99.90;;;;;;5027949;28;20151;-76
2021/12/10 07:14:04;;;;;;;11.43;3.47;;;4.50;99.90;;;;;;5026327;28;20490;-75
2021/12/10 07:16:30;;;;;;;12.30;3.83;;;4.50;99.90;;;;;;5027231;28;20030;-74
2021/12/10 07:18:58;;;;;;;10.68;4.00;;;4.50;99.90;;;;;;5027106;28;20021;-76
2021/12/10 07:21:26;;;;;;;14.80;3.90;;;4.50;99.90;;;;;;5027477;28;20025;-74
2021/12/10 07:23:53;;;;;;;12.18;3.50;;;4.50;99.90;;;;;;5027494;28;20018;-76
2021/12/10 07:26:19;;;;;;;14.23;4.00;;;4.50;99.90;;;;;;5027330;28;20049;-75
2021/12/10 07:28:44;;;;;;;13.65;3.85;;;4.50;99.90;;;;;;5027915;28;20078;-76
2021/12/10 07:31:14;;;;;;;11.07;3.60;;;4.50;99.90;;;;;;5026712;28;20030;-76
2021/12/10 07:33:41;;;;;;;12.88;4.20;;;4.50;99.90;;;;;;5027501;28;20090;-75
2021/12/10 07:36:07;;;;;;;7.93;3.53;;;4.50;99.90;;;;;;5027404;28;20029;-78
2021/12/10 07:38:33;;;;;;;12.73;4.32;;;4.50;99.90;;;;;;5027397;28;20022;-76
2021/12/10 07:41:00;;;;;;;13.65;5.10;;;4.40;99.90;;;;;;5027452;28;20036;-77
2021/12/10 07:43:25;;;;;;;18.25;5.18;;;4.50;99.90;;;;;;5027242;28;20025;-76
2021/12/10 07:45:53;;;;;;;12.27;5.10;;;4.40;99.90;;;;;;5027231;28;20474;-76
2021/12/10 07:48:22;;;;;;;9.98;4.80;;;4.40;99.90;;;;;;5033293;28;20018;-76
2021/12/10 07:50:53;;;;;;;15.48;5.13;;;4.40;99.90;;;;;;5043198;28;20033;-75
2021/12/10 07:53:21;;;;;;;11.45;5.15;;;4.40;99.90;;;;;;5032431;27;20494;-75
2021/12/10 07:55:47;;;;;;;12.10;5.28;;;4.40;99.90;;;;;;5034850;28;20028;-75
2021/12/10 07:58:13;;;;;;;14.52;5.38;;;4.40;99.90;;;;;;5034298;28;20022;-76
2021/12/10 08:00:42;;;;;;;13.18;5.38;;;4.40;99.90;;;;;;5028572;28;20599;-75
2021/12/10 08:03:08;;;;;;;11.48;5.60;;;4.40;99.90;;;;;;5034180;28;20037;-76
2021/12/10 08:05:34;;;;;;;15.35;6.03;;;4.40;99.90;;;;;;5028733;28;20062;-75
2021/12/10 08:08:00;;;;;;;14.07;5.38;;;4.40;99.90;;;;;;5035694;28;20092;-75
2021/12/10 08:10:27;;;;;;;11.70;5.43;;;4.40;99.90;;;;;;5038922;28;20025;-74
2021/12/10 08:12:53;;;;;;;12.88;5.60;;;4.40;99.90;;;;;;5036952;28;20021;-75
2021/12/10 08:15:19;;;;;;;15.65;5.70;;;4.40;99.90;;;;;;5034613;28;20017;-74
2021/12/10 08:17:45;;;;;;;12.27;6.30;;;4.40;99.90;;;;;;5036523;28;20026;-75
2021/12/10 08:20:13;;;;;;;17.23;6.35;;;4.40;99.90;;;;;;5036806;28;20038;-76
2021/12/10 08:22:40;;;;;;;12.88;5.95;;;4.40;99.90;;;;;;5029290;28;20017;-75
2021/12/10 08:25:07;;;;;;;12.07;5.65;;;4.40;99.90;;;;;;5040029;28;20032;-75
2021/12/10 08:27:33;;;;;;;13.65;6.22;;;4.40;99.90;;;;;;5039612;27;20417;-75
2021/12/10 08:30:03;;;;;;;13.35;5.85;;;4.40;99.90;;;;;;5043169;28;20185;-75
2021/12/10 08:32:30;;;;;;;14.90;6.18;;;4.40;99.90;;;;;;5045609;28;20033;-76
2021/12/10 08:34:56;;;;;;;15.43;5.80;;;4.40;99.90;;;;;;5040388;28;20104;-76
2021/12/10 08:37:21;;;;;;;13.20;5.82;;;4.40;99.90;;;;;;5043710;28;20541;-75
2021/12/10 08:39:47;;;;;;;16.27;6.22;;;4.40;99.90;;;;;;5042820;27;20435;-75
2021/12/10 08:42:14;;;;;;;17.85;6.00;;;4.50;99.90;;;;;;5034831;27;20010;-75
2021/12/10 08:44:42;;;;;;;12.80;5.35;;;4.50;99.90;;;;;;5041306;28;20018;-74
2021/12/10 08:47:09;;;;;;;16.30;5.40;;;4.50;99.90;;;;;;5034401;28;20406;-74
2021/12/10 08:49:36;;;;;;;16.35;6.03;;;4.50;99.90;;;;;;5033996;28;20108;-75
2021/12/10 08:52:04;;;;;;;15.15;6.75;;;4.50;99.90;;;;;;5037713;28;20021;-74
2021/12/10 08:54:31;;;;;;;12.40;6.13;;;4.50;99.90;;;;;;5039834;28;20029;-74
2021/12/10 08:56:58;;;;;;;13.65;6.28;;;4.50;99.90;;;;;;5041415;28;20104;-74
2021/12/10 08:59:25;;;;;;;18.90;6.40;;;4.50;99.90;;;;;;5048009;28;20064;-74
2021/12/10 09:01:56;;;;;;;16.38;5.82;;;4.50;99.90;;;;;;5057838;27;20052;-74
2021/12/10 09:04:22;;;;;;;13.57;6.35;;;4.50;99.90;;;;;;5036948;28;20404;-75
2021/12/10 09:06:51;;;;;;;11.55;6.25;;;4.50;99.90;;;;;;5043050;28;20386;-75
2021/12/10 09:09:19;;;;;;;15.98;6.95;;;4.50;99.90;;;;;;5031843;28;20086;-75
2021/12/10 09:11:49;;;;;;;17.30;6.53;;;4.50;99.90;;;;;;5029594;28;20021;-74
2021/12/10 09:14:16;;;;;;;13.68;7.03;;;4.50;99.90;;;;;;5029320;28;20028;-74
2021/12/10 09:16:42;;;;;;;9.30;5.43;;;4.60;99.90;;;;;;5039571;28;20502;-74
2021/12/10 09:19:13;;;;;;;20.02;6.13;;;4.50;99.90;;;;;;5042331;28;20100;-74
2021/12/10 09:21:40;;;;;;;14.48;6.05;;;4.60;99.90;;;;;;5033583;28;20378;-74
2021/12/10 09:24:10;;;;;;;14.73;5.40;;;4.50;99.90;;;;;;5031171;28;20057;-75
2021/12/10 09:26:41;;;;;;;12.63;6.18;;;4.60;99.90;;;;;;5029189;28;20045;-75
2021/12/10 09:29:10;;;;;;;13.20;5.93;;;4.60;99.90;;;;;;5030848;28;20029;-75
2021/12/10 09:31:39;;;;;;;8.98;5.15;;;4.60;99.90;;;;;;5052327;28;20495;-75
2021/12/10 09:34:06;;;;;;;16.52;5.53;;;4.60;99.90;;;;;;5040718;28;20684;-75
2021/12/10 09:36:32;;;;;;;11.95;4.75;;;4.60;99.90;;;;;;5036413;28;20108;-75
2021/12/10 09:38:58;;;;;;;14.02;5.05;;;4.60;99.90;;;;;;5049252;28;20065;-75
2021/12/10 09:41:25;;;;;;;14.73;4.80;;;4.60;99.90;;;;;;5039458;28;20109;-75
2021/12/10 09:43:52;;;;;;;10.50;5.00;;;4.60;99.90;;;;;;5037938;28;20037;-75
2021/12/10 09:46:18;;;;;;;8.68;4.82;;;4.60;99.90;;;;;;5042620;28;20025;-75
2021/12/10 09:48:43;;;;;;;9.68;4.57;;;4.60;99.90;;;;;;5037006;28;20073;-75
2021/12/10 09:51:17;;;;;;;14.65;5.15;;;4.60;99.90;;;;;;5048500;27;20025;-74
2021/12/10 09:53:46;;;;;;;12.98;4.90;;;4.60;99.90;;;;;;5048602;28;20101;-75
2021/12/10 09:56:17;;;;;;;15.02;5.60;;;4.60;99.90;;;;;;5048805;28;20040;-75
2021/12/10 09:58:43;;;;;;;12.13;5.10;;;4.60;99.90;;;;;;5048610;28;20411;-75
2021/12/10 10:01:31;;;;;;;13.05;5.68;;;4.60;99.90;;;;;;5048442;28;20506;-75
2021/12/10 10:04:02;;;;;;;15.93;5.32;;;4.60;99.90;;;;;;5037575;28;20037;-76
2021/12/10 10:06:30;;;;;;;16.13;5.78;;;4.60;99.90;;;;;;5047758;28;20025;-76
2021/12/10 10:08:56;;;;;;;13.27;5.88;;;4.70;99.90;;;;;;5034786;28;20395;-73
2021/12/10 10:11:29;;;;;;;12.15;5.70;;;4.60;99.90;;;;;;5028747;28;20043;-73
2021/12/10 10:13:56;;;;;;;20.45;6.15;;;4.70;99.90;;;;;;5034661;28;20025;-73
2021/12/10 10:16:25;;;;;;;16.33;5.90;;;4.70;99.90;;;;;;5047184;28;20017;-73
2021/12/10 10:18:51;;;;;;;20.15;6.22;;;4.70;99.90;;;;;;5044142;28;20067;-73
2021/12/10 10:21:29;;;;;;;16.38;5.90;;;4.70;99.90;;;;;;5027898;28;20437;-73
2021/12/10 10:23:55;;;;;;;33.05;6.03;;;4.80;99.90;;;;;;5031157;28;20021;-74
2021/12/10 10:26:31;;;;;;;13.50;6.25;;;4.80;99.90;;;;;;5030274;28;20508;-74
2021/12/10 10:28:59;;;;;;;10.60;5.32;;;4.70;99.90;;;;;;5054318;27;20030;-74
2021/12/10 10:31:25;;;;;;;298.85;20.23;;;4.80;99.90;;;;;;5034251;28;20021;-73
2021/12/10 10:33:53;;;;;;;61.63;8.13;;;4.80;99.90;;;;;;5027211;28;20030;-72
2021/12/10 10:36:23;;;;;;;46.95;8.80;;;4.80;99.90;;;;;;5034604;28;20090;-72
2021/12/10 10:38:53;;;;;;;11.80;5.40;;;4.90;99.90;;;;;;5029169;28;20474;-73
2021/12/10 10:41:22;;;;;;;15.35;5.47;;;4.90;99.90;;;;;;5046559;28;20057;-74
2021/12/10 10:43:49;;;;;;;13.77;5.82;;;4.80;99.90;;;;;;5048162;28;20021;-77
2021/12/10 10:46:16;;;;;;;179.20;14.20;;;4.80;99.90;;;;;;5048022;28;20446;-73
2021/12/10 10:48:43;;;;;;;15.77;5.72;;;4.80;99.90;;;;;;5047977;28;20085;-72
2021/12/10 10:51:17;;;;;;;20.13;5.82;;;4.80;99.90;;;;;;5037486;28;20038;-73
2021/12/10 10:53:49;;;;;;;8.93;4.78;;;4.80;99.90;;;;;;5027919;28;20026;-74
2021/12/10 10:56:44;;;;;;;12.60;5.10;;;4.80;99.90;;;;;;5027936;28;20029;-73
2021/12/10 10:59:12;;;;;;;447.08;25.27;;;4.80;99.90;;;;;;5037478;28;20045;-74
2021/12/10 11:01:48;;;;;;;17.77;6.10;;;4.80;99.90;;;;;;5046082;27;20073;-74
2021/12/10 11:04:25;;;;;;;88.85;8.65;;;4.90;99.90;;;;;;5038968;28;20013;-75
2021/12/10 11:06:53;;;;;;;68.53;8.05;;;4.90;99.90;;;;;;5049215;27;20025;-73
2021/12/10 11:09:27;;;;;;;34.83;6.45;;;4.90;99.90;;;;;;5055969;28;20299;-74
2021/12/10 11:12:06;;;;;;;324.58;17.80;;;4.90;99.90;;;;;;5039463;28;20040;-74
2021/12/10 11:14:38;;;;;;;112.68;8.93;;;5.00;99.90;;;;;;5044748;28;20040;-74
2021/12/10 11:17:26;;;;;;;44.70;7.15;;;4.90;99.90;;;;;;5047815;28;20105;-74
2021/12/10 11:20:16;;;;;;;17.35;5.95;;;5.00;99.90;;;;;;5047636;28;20040;-74
2021/12/10 11:22:52;;;;;;;212.00;14.57;;;5.00;99.90;;;;;;5066515;28;20501;-72
2021/12/10 11:25:25;;;;;;;25.92;6.63;;;5.00;99.90;;;;;;5047496;28;20516;-73
2021/12/10 11:28:00;;;;;;;10.70;5.20;;;5.00;99.90;;;;;;5062895;28;20056;-74
2021/12/10 11:30:27;;;;;;;21.60;5.93;;;5.00;99.90;;;;;;5044908;27;20029;-74
2021/12/10 11:33:01;;;;;;;15.77;5.82;;;5.00;99.90;;;;;;5037385;28;20034;-73
2021/12/10 11:36:01;;;;;;;22.77;5.90;;;5.00;99.90;;;;;;5027870;28;20109;-74
2021/12/10 11:38:31;;;;;;;114.28;11.25;;;5.10;99.90;;;;;;5032122;28;20123;-73
2021/12/10 11:41:10;;;;;;;12.80;5.70;;;5.00;99.90;;;;;;5029763;28;20077;-73
2021/12/10 11:48:56;;;;;;;23.52;5.82;;;5.10;99.90;;;;;;5030342;28;20034;-73
2021/12/10 11:51:32;;;;;;;12.07;5.65;;;5.10;99.90;;;;;;5027289;28;20041;-73
2021/12/10 11:54:05;;;;;;;21.80;6.72;;;5.10;99.90;;;;;;5027647;28;20074;-73
2021/12/10 11:56:37;;;;;;;19.10;6.60;;;5.10;99.90;;;;;;5027362;28;20116;-73
2021/12/10 11:59:07;;;;;;;16.55;6.50;;;5.10;99.90;;;;;;5026564;28;20025;-74
2021/12/10 12:01:52;;;;;;;17.85;6.63;;;5.10;99.90;;;;;;5026401;28;20022;-74
2021/12/10 12:04:28;;;;;;;14.90;6.50;;;5.10;99.90;;;;;;5029036;28;20050;-74
2021/12/10 12:07:13;;;;;;;19.17;6.43;;;5.10;99.90;;;;;;5031114;28;20033;-73
2021/12/10 12:09:41;;;;;;;21.85;7.25;;;5.10;99.90;;;;;;5029701;28;20041;-74
2021/12/10 12:12:13;;;;;;;21.27;6.95;;;5.10;99.90;;;;;;5032204;28;20477;-73
2021/12/10 12:14:44;;;;;;;13.70;6.88;;;5.10;99.90;;;;;;5032459;28;20033;-74
2021/12/10 12:17:47;;;;;;;19.60;7.50;;;5.10;99.90;;;;;;5032786;28;20047;-74
2021/12/10 12:20:57;;;;;;;18.10;6.80;;;5.10;99.90;;;;;;5033227;28;20029;-74
2021/12/10 12:26:27;;;;;;;21.15;7.93;;;5.20;99.90;;;;;;5092955;28;20050;-73
2021/12/10 12:28:56;;;;;;;19.55;7.40;;;5.20;99.90;;;;;;5092915;28;20020;-73
2021/12/10 12:31:27;;;;;;;18.20;7.32;;;5.30;99.90;;;;;;5107285;28;20193;-73
2021/12/10 12:33:58;;;;;;;16.08;6.95;;;5.30;99.90;;;;;;5113084;28;20019;-73
2021/12/10 12:36:51;;;;;;;16.27;6.93;;;5.30;99.90;;;;;;5113644;28;20031;-73
2021/12/10 12:39:40;;;;;;;19.50;7.78;;;5.40;99.90;;;;;;5112772;28;20081;-74
2021/12/10 12:42:21;;;;;;;17.65;7.93;;;5.40;99.90;;;;;;5112916;28;20077;-73
2021/12/10 12:45:06;;;;;;;18.52;8.70;;;5.40;99.90;;;;;;5105255;28;20036;-73
2021/12/10 12:47:34;;;;;;;19.67;9.02;;;5.50;99.90;;;;;;5092563;28;20087;-73
2021/12/10 12:50:22;;;;;;;23.83;9.02;;;5.50;99.90;;;;;;5092263;28;20036;-74
2021/12/10 12:52:57;;;;;;;601.88;37.15;;;5.50;99.90;;;;;;5092886;28;20036;-73
2021/12/10 12:55:23;;;;;;;;;;;5.50;99.90;;;;;;5093770;28;20032;-74
2021/12/10 12:57:48;;;;;;;33.45;9.25;;;5.50;99.90;;;;;;5052038;28;19916;-72
2021/12/10 13:00:36;;;;;;;154.00;14.90;;;5.50;99.90;;;;;;5033294;28;20029;-73
2021/12/10 13:03:26;;;;;;;19.92;8.27;;;5.50;99.90;;;;;;5032953;28;20493;-74
2021/12/10 13:06:09;;;;;;;20.70;8.98;;;5.50;99.90;;;;;;5063212;28;20044;-77
2021/12/10 13:08:38;;;;;;;73.72;11.30;;;5.50;99.90;;;;;;5118747;27;20025;-74
2021/12/10 13:11:06;;;;;;;21.38;8.88;;;5.50;99.90;;;;;;5117878;27;20076;-75
2021/12/10 13:14:04;;;;;;;31.98;9.32;;;5.50;99.90;;;;;;5030474;28;20017;-79
2021/12/10 13:16:37;;;;;;;83.03;11.57;;;5.50;99.90;;;;;;5034484;28;20040;-73